• Join FlightAware (Why Join?)
  • Login
  • US Flag 
03:59AM EDT


 

Airport Tracker/Info


-or-


 

Live Flight TrackerFlight Track Log ✈ UAL5900 ✈ 27-Apr-2013 ✈ KLAN - KORD

Flight Track Log - Related Links

Times and Time Zones

All times are in EDT time to prevent confusion due to time zone crossing. See the UAL5900 flight status page for this flight to view local times or setup timezone preferences in your user account.

Time Position Orientation Groundspeed Altitude Reporting Facility
EDT Latitude Longitude Course Direction KTS MPH feet Rate Location/Type
04:14PM 42.8328 -84.5272 281° West 218 251 5,800  Level Chicago Center
04:15PM 42.8450 -84.6175 280° West 271 312 7,000 540 Climbing Chicago Center
04:16PM 42.7667 -84.8681 270° West  Level FlightAware Approximate
04:16PM 42.8392 -84.7153 265° West 262 302 7,000  Level Chicago Center
04:17PM 42.7667 -84.9393 270° West  Level FlightAware Approximate
04:17PM 42.8331 -84.8133 265° West 260 299 9,000  Level Chicago Center
04:18PM 42.7682 -85.0103 281° West  Level FlightAware Approximate
04:18PM 42.8264 -84.9192 265° West 274 315 11,500  Level Chicago Center
04:19PM 42.7774 -85.0752 281° West  Level FlightAware Approximate
04:19PM 42.8183 -85.0464 265° West 337 388 13,200  Level Chicago Center
04:20PM 42.8064 -85.2125 264° West 364 419 15,600 1,320 Climbing Chicago Center
04:21PM 42.7967 -85.3583 265° West 383 441 16,000 180 Climbing Chicago Center
04:22PM 42.7853 -85.5075 264° West 393 452 16,000  Level Chicago Center
04:23PM 42.7594 -85.6539 257° West 397 457 16,000  Level Chicago Center
04:24PM 42.7328 -85.8017 256° West 400 460 16,000  Level Chicago Center
04:25PM 42.7022 -85.9486 254° West 400 460 16,000  Level Chicago Center
04:26PM 42.6706 -86.0947 254° West 400 460 16,000  Level Chicago Center
04:27PM 42.6394 -86.2403 254° West 400 460 16,000  Level Chicago Center
04:28PM 42.6064 -86.3856 253° West 401 461 16,000  Level Chicago Center
04:29PM 42.5694 -86.5600 254° West 400 460 16,000  Level Chicago Center
04:31PM 42.5367 -86.7044 253° West 401 461 16,000 -840 Level Chicago Center
04:32PM 42.5083 -86.8406 254° West 380 437 14,400 -1,620 Descending Chicago Center
04:33PM 42.4828 -86.9475 252° West 309 356 12,700 -1,500 Descending Chicago Center
04:34PM 42.4586 -87.0533 253° West 296 341 11,300 -1,380 Descending Chicago Center
04:35PM 42.4336 -87.1572 252° West 291 335 9,900 -1,140 Descending Chicago Center
04:36PM 42.4106 -87.2619 253° West 291 335 9,000 -660 Descending Chicago Center
04:37PM 42.3783 -87.3839 250° West 289 333 8,600 -840 Descending Chicago Center
04:38PM 42.3389 -87.4600 235° Southwest 274 315 7,300 -780 Descending Chicago Center
04:39PM 42.2925 -87.5556 237° Southwest 268 308 7,000 -240 Descending Chicago Center
04:40PM 42.2433 -87.6286 228° Southwest 267 307 6,900 -600 Descending Chicago Center
04:41PM 42.1875 -87.6856 217° Southwest 256 295 5,800 -1,260 Descending Chicago Center
04:42PM 42.1397 -87.7408 221° Southwest 233 268 4,400 -1,380 Descending Chicago Center